sensor_id;sensor_type;location;lat;lon;timestamp;temperature;humidity
18794;DHT22;29610;49.022;12.114;2023-09-19T00:02:40;16.10;99.90
18794;DHT22;29610;49.022;12.114;2023-09-19T00:05:34;15.00;99.90
18794;DHT22;29610;49.022;12.114;2023-09-19T00:08:25;15.00;99.90
18794;DHT22;29610;49.022;12.114;2023-09-19T00:11:14;15.10;99.90
18794;DHT22;29610;49.022;12.114;2023-09-19T00:14:04;15.20;99.90
18794;DHT22;29610;49.022;12.114;2023-09-19T00:16:55;15.10;99.90
18794;DHT22;29610;49.022;12.114;2023-09-19T00:19:45;15.10;99.90
18794;DHT22;29610;49.022;12.114;2023-09-19T00:22:41;16.20;99.90
18794;DHT22;29610;49.022;12.114;2023-09-19T00:25:31;15.00;99.90
18794;DHT22;29610;49.022;12.114;2023-09-19T00:28:22;14.90;99.90
18794;DHT22;29610;49.022;12.114;2023-09-19T00:31:11;15.10;99.90
18794;DHT22;29610;49.022;12.114;2023-09-19T00:34:00;15.10;99.90
18794;DHT22;29610;49.022;12.114;2023-09-19T00:36:54;16.50;99.90
18794;DHT22;29610;49.022;12.114;2023-09-19T00:39:44;15.50;99.90
18794;DHT22;29610;49.022;12.114;2023-09-19T00:42:34;16.00;99.90
18794;DHT22;29610;49.022;12.114;2023-09-19T00:45:25;15.20;99.90
18794;DHT22;29610;49.022;12.114;2023-09-19T00:48:16;16.00;99.90
18794;DHT22;29610;49.022;12.114;2023-09-19T00:51:06;15.20;99.90
18794;DHT22;29610;49.022;12.114;2023-09-19T00:53:56;15.40;99.90
18794;DHT22;29610;49.022;12.114;2023-09-19T00:56:48;15.50;99.90
18794;DHT22;29610;49.022;12.114;2023-09-19T00:59:38;15.20;99.90
18794;DHT22;29610;49.022;12.114;2023-09-19T01:02:27;15.40;99.90
18794;DHT22;29610;49.022;12.114;2023-09-19T01:05:18;15.40;99.90
18794;DHT22;29610;49.022;12.114;2023-09-19T01:08:11;15.00;99.90
18794;DHT22;29610;49.022;12.114;2023-09-19T01:11:05;15.00;99.90
18794;DHT22;29610;49.022;12.114;2023-09-19T01:14:07;15.10;99.90
18794;DHT22;29610;49.022;12.114;2023-09-19T01:17:16;15.00;99.90
18794;DHT22;29610;49.022;12.114;2023-09-19T01:20:27;15.00;99.90
18794;DHT22;29610;49.022;12.114;2023-09-19T01:23:33;15.10;99.90
18794;DHT22;29610;49.022;12.114;2023-09-19T01:26:53;15.10;99.90
18794;DHT22;29610;49.022;12.114;2023-09-19T01:30:03;15.10;99.90
18794;DHT22;29610;49.022;12.114;2023-09-19T01:32:58;14.90;99.90
18794;DHT22;29610;49.022;12.114;2023-09-19T01:35:47;15.10;99.90
18794;DHT22;29610;49.022;12.114;2023-09-19T01:38:37;14.60;99.90
18794;DHT22;29610;49.022;12.114;2023-09-19T01:41:41;16.80;99.90
18794;DHT22;29610;49.022;12.114;2023-09-19T01:44:47;16.40;99.90
18794;DHT22;29610;49.022;12.114;2023-09-19T01:47:49;15.20;99.90
18794;DHT22;29610;49.022;12.114;2023-09-19T01:50:44;15.40;99.90
18794;DHT22;29610;49.022;12.114;2023-09-19T01:53:50;15.10;99.90
18794;DHT22;29610;49.022;12.114;2023-09-19T01:56:48;16.50;99.90
18794;DHT22;29610;49.022;12.114;2023-09-19T01:59:45;15.40;99.90
18794;DHT22;29610;49.022;12.114;2023-09-19T02:02:42;16.60;99.90
18794;DHT22;29610;49.022;12.114;2023-09-19T02:05:35;16.60;99.90
18794;DHT22;29610;49.022;12.114;2023-09-19T02:08:24;15.40;99.90
18794;DHT22;29610;49.022;12.114;2023-09-19T02:11:14;16.00;99.90
18794;DHT22;29610;49.022;12.114;2023-09-19T02:14:03;15.20;99.90
18794;DHT22;29610;49.022;12.114;2023-09-19T02:16:55;15.10;99.90
18794;DHT22;29610;49.022;12.114;2023-09-19T02:19:45;16.00;99.90
18794;DHT22;29610;49.022;12.114;2023-09-19T02:22:35;15.70;99.90
18794;DHT22;29610;49.022;12.114;2023-09-19T02:25:25;16.70;99.90
18794;DHT22;29610;49.022;12.114;2023-09-19T02:28:15;15.00;99.90
18794;DHT22;29610;49.022;12.114;2023-09-19T02:31:03;15.90;99.90
18794;DHT22;29610;49.022;12.114;2023-09-19T02:33:53;16.50;99.90
18794;DHT22;29610;49.022;12.114;2023-09-19T02:36:42;15.00;99.90
18794;DHT22;29610;49.022;12.114;2023-09-19T02:39:33;14.90;99.90
18794;DHT22;29610;49.022;12.114;2023-09-19T02:42:23;14.90;99.90
18794;DHT22;29610;49.022;12.114;2023-09-19T02:45:12;14.90;99.90
18794;DHT22;29610;49.022;12.114;2023-09-19T02:48:01;14.90;99.90
18794;DHT22;29610;49.022;12.114;2023-09-19T02:50:52;15.00;99.90
18794;DHT22;29610;49.022;12.114;2023-09-19T02:53:41;14.40;99.90
18794;DHT22;29610;49.022;12.114;2023-09-19T02:56:32;15.10;99.90
18794;DHT22;29610;49.022;12.114;2023-09-19T02:59:24;15.00;99.90
18794;DHT22;29610;49.022;12.114;2023-09-19T03:02:15;14.80;99.90
18794;DHT22;29610;49.022;12.114;2023-09-19T03:05:07;15.00;99.90
18794;DHT22;29610;49.022;12.114;2023-09-19T03:07:59;15.10;99.90
18794;DHT22;29610;49.022;12.114;2023-09-19T03:10:50;15.10;99.90
18794;DHT22;29610;49.022;12.114;2023-09-19T03:13:40;15.10;99.90
18794;DHT22;29610;49.022;12.114;2023-09-19T03:16:31;15.20;99.90
18794;DHT22;29610;49.022;12.114;2023-09-19T03:19:20;15.20;99.90
18794;DHT22;29610;49.022;12.114;2023-09-19T03:22:11;15.20;99.90
18794;DHT22;29610;49.022;12.114;2023-09-19T03:25:00;15.20;99.90
18794;DHT22;29610;49.022;12.114;2023-09-19T03:27:51;15.20;99.90
18794;DHT22;29610;49.022;12.114;2023-09-19T03:30:44;14.50;99.90
18794;DHT22;29610;49.022;12.114;2023-09-19T03:33:33;15.20;99.90
18794;DHT22;29610;49.022;12.114;2023-09-19T03:36:23;15.30;99.90
18794;DHT22;29610;49.022;12.114;2023-09-19T03:39:12;16.00;99.90
18794;DHT22;29610;49.022;12.114;2023-09-19T03:42:03;15.30;99.90
18794;DHT22;29610;49.022;12.114;2023-09-19T03:44:55;15.20;99.90
18794;DHT22;29610;49.022;12.114;2023-09-19T03:47:47;15.30;99.90
18794;DHT22;29610;49.022;12.114;2023-09-19T03:50:38;15.90;99.90
18794;DHT22;29610;49.022;12.114;2023-09-19T03:53:27;16.00;99.90
18794;DHT22;29610;49.022;12.114;2023-09-19T03:56:16;16.40;99.90
18794;DHT22;29610;49.022;12.114;2023-09-19T03:59:06;16.60;99.90
18794;DHT22;29610;49.022;12.114;2023-09-19T04:01:56;16.80;99.90
18794;DHT22;29610;49.022;12.114;2023-09-19T04:04:46;15.30;99.90
18794;DHT22;29610;49.022;12.114;2023-09-19T04:07:36;15.20;99.90
18794;DHT22;29610;49.022;12.114;2023-09-19T04:10:24;15.60;99.90
18794;DHT22;29610;49.022;12.114;2023-09-19T04:13:14;15.40;99.90
18794;DHT22;29610;49.022;12.114;2023-09-19T04:16:03;15.30;99.90
18794;DHT22;29610;49.022;12.114;2023-09-19T04:18:54;15.30;99.90
18794;DHT22;29610;49.022;12.114;2023-09-19T04:21:44;15.40;99.90
18794;DHT22;29610;49.022;12.114;2023-09-19T04:24:32;15.30;99.90
18794;DHT22;29610;49.022;12.114;2023-09-19T04:27:21;15.30;99.90
18794;DHT22;29610;49.022;12.114;2023-09-19T04:30:10;15.30;99.90
18794;DHT22;29610;49.022;12.114;2023-09-19T04:32:59;15.30;99.90
18794;DHT22;29610;49.022;12.114;2023-09-19T04:35:50;15.30;99.90
18794;DHT22;29610;49.022;12.114;2023-09-19T04:38:40;15.30;99.90
18794;DHT22;29610;49.022;12.114;2023-09-19T04:41:32;15.30;99.90
18794;DHT22;29610;49.022;12.114;2023-09-19T04:44:21;15.30;99.90
18794;DHT22;29610;49.022;12.114;2023-09-19T04:47:10;15.30;99.90
18794;DHT22;29610;49.022;12.114;2023-09-19T04:49:59;15.30;99.90
18794;DHT22;29610;49.022;12.114;2023-09-19T04:52:49;15.30;99.90
18794;DHT22;29610;49.022;12.114;2023-09-19T04:55:40;15.30;99.90
18794;DHT22;29610;49.022;12.114;2023-09-19T04:58:29;15.20;99.90
18794;DHT22;29610;49.022;12.114;2023-09-19T05:01:18;15.30;99.90
18794;DHT22;29610;49.022;12.114;2023-09-19T05:04:09;15.30;99.90
18794;DHT22;29610;49.022;12.114;2023-09-19T05:06:58;15.30;99.90
18794;DHT22;29610;49.022;12.114;2023-09-19T05:09:48;15.30;99.90
18794;DHT22;29610;49.022;12.114;2023-09-19T05:12:38;15.30;99.90
18794;DHT22;29610;49.022;12.114;2023-09-19T05:15:27;15.30;99.90
18794;DHT22;29610;49.022;12.114;2023-09-19T05:18:16;15.30;99.90
18794;DHT22;29610;49.022;12.114;2023-09-19T05:21:04;15.20;99.90
18794;DHT22;29610;49.022;12.114;2023-09-19T05:23:53;15.30;99.90
18794;DHT22;29610;49.022;12.114;2023-09-19T05:26:41;15.30;99.90
18794;DHT22;29610;49.022;12.114;2023-09-19T05:29:31;15.30;99.90
18794;DHT22;29610;49.022;12.114;2023-09-19T05:32:20;15.30;99.90
18794;DHT22;29610;49.022;12.114;2023-09-19T05:35:10;15.40;99.90
18794;DHT22;29610;49.022;12.114;2023-09-19T05:38:00;15.40;99.90
18794;DHT22;29610;49.022;12.114;2023-09-19T05:40:48;15.40;99.90
18794;DHT22;29610;49.022;12.114;2023-09-19T05:43:37;15.50;99.90
18794;DHT22;29610;49.022;12.114;2023-09-19T05:46:27;15.50;99.90
18794;DHT22;29610;49.022;12.114;2023-09-19T05:49:17;15.40;99.90
18794;DHT22;29610;49.022;12.114;2023-09-19T05:52:08;15.30;99.90
18794;DHT22;29610;49.022;12.114;2023-09-19T05:54:57;15.30;99.90
18794;DHT22;29610;49.022;12.114;2023-09-19T05:57:49;15.30;99.90
18794;DHT22;29610;49.022;12.114;2023-09-19T06:00:39;15.20;99.90
18794;DHT22;29610;49.022;12.114;2023-09-19T06:03:30;15.20;99.90
18794;DHT22;29610;49.022;12.114;2023-09-19T06:06:19;15.10;99.90
18794;DHT22;29610;49.022;12.114;2023-09-19T06:09:08;15.10;99.90
18794;DHT22;29610;49.022;12.114;2023-09-19T06:11:57;15.20;99.90
18794;DHT22;29610;49.022;12.114;2023-09-19T06:14:47;15.20;99.90
18794;DHT22;29610;49.022;12.114;2023-09-19T06:17:36;15.20;99.90
18794;DHT22;29610;49.022;12.114;2023-09-19T06:20:27;15.30;99.90
18794;DHT22;29610;49.022;12.114;2023-09-19T06:23:15;15.40;99.90
18794;DHT22;29610;49.022;12.114;2023-09-19T06:26:04;15.60;99.90
18794;DHT22;29610;49.022;12.114;2023-09-19T06:28:54;15.80;99.90
18794;DHT22;29610;49.022;12.114;2023-09-19T06:31:43;15.90;99.90
18794;DHT22;29610;49.022;12.114;2023-09-19T06:34:32;16.10;99.90
18794;DHT22;29610;49.022;12.114;2023-09-19T06:37:22;16.30;99.90
18794;DHT22;29610;49.022;12.114;2023-09-19T06:40:12;16.60;99.90
18794;DHT22;29610;49.022;12.114;2023-09-19T06:43:02;16.90;99.90
18794;DHT22;29610;49.022;12.114;2023-09-19T06:45:53;17.00;99.90
18794;DHT22;29610;49.022;12.114;2023-09-19T06:48:43;17.20;99.90
18794;DHT22;29610;49.022;12.114;2023-09-19T06:51:33;17.30;99.90
18794;DHT22;29610;49.022;12.114;2023-09-19T06:54:24;17.30;99.90
18794;DHT22;29610;49.022;12.114;2023-09-19T06:57:14;17.40;99.90
18794;DHT22;29610;49.022;12.114;2023-09-19T07:00:03;17.50;99.90
18794;DHT22;29610;49.022;12.114;2023-09-19T07:02:57;17.50;99.90
18794;DHT22;29610;49.022;12.114;2023-09-19T07:05:48;17.50;99.90
18794;DHT22;29610;49.022;12.114;2023-09-19T07:08:37;17.60;99.90
18794;DHT22;29610;49.022;12.114;2023-09-19T07:11:27;17.70;99.90
18794;DHT22;29610;49.022;12.114;2023-09-19T07:14:18;17.60;99.90
18794;DHT22;29610;49.022;12.114;2023-09-19T07:17:06;17.50;99.90
18794;DHT22;29610;49.022;12.114;2023-09-19T07:19:56;17.60;99.90
18794;DHT22;29610;49.022;12.114;2023-09-19T07:22:46;17.60;99.90
18794;DHT22;29610;49.022;12.114;2023-09-19T07:25:36;17.60;99.90
18794;DHT22;29610;49.022;12.114;2023-09-19T07:28:26;17.80;99.90
18794;DHT22;29610;49.022;12.114;2023-09-19T07:31:17;17.80;99.90
18794;DHT22;29610;49.022;12.114;2023-09-19T07:34:06;18.00;99.90
18794;DHT22;29610;49.022;12.114;2023-09-19T07:36:55;18.20;99.90
18794;DHT22;29610;49.022;12.114;2023-09-19T07:39:44;18.20;99.90
18794;DHT22;29610;49.022;12.114;2023-09-19T07:42:33;18.30;99.90
18794;DHT22;29610;49.022;12.114;2023-09-19T07:45:23;18.40;99.90
18794;DHT22;29610;49.022;12.114;2023-09-19T07:48:12;18.50;99.90
18794;DHT22;29610;49.022;12.114;2023-09-19T07:51:03;18.60;99.90
18794;DHT22;29610;49.022;12.114;2023-09-19T07:53:54;18.80;99.90
18794;DHT22;29610;49.022;12.114;2023-09-19T07:56:43;18.90;99.90
18794;DHT22;29610;49.022;12.114;2023-09-19T07:59:32;19.10;99.90
18794;DHT22;29610;49.022;12.114;2023-09-19T08:02:22;19.30;99.90
18794;DHT22;29610;49.022;12.114;2023-09-19T08:05:12;19.50;99.90
18794;DHT22;29610;49.022;12.114;2023-09-19T08:08:03;19.40;99.90
18794;DHT22;29610;49.022;12.114;2023-09-19T08:10:54;19.30;99.90
18794;DHT22;29610;49.022;12.114;2023-09-19T08:13:44;19.00;99.90
18794;DHT22;29610;49.022;12.114;2023-09-19T08:16:36;18.90;99.90
18794;DHT22;29610;49.022;12.114;2023-09-19T08:19:26;19.00;99.90
18794;DHT22;29610;49.022;12.114;2023-09-19T08:22:15;18.90;99.90
18794;DHT22;29610;49.022;12.114;2023-09-19T08:25:07;19.10;99.90
18794;DHT22;29610;49.022;12.114;2023-09-19T08:27:56;19.60;99.90
18794;DHT22;29610;49.022;12.114;2023-09-19T08:30:47;20.00;99.90
18794;DHT22;29610;49.022;12.114;2023-09-19T08:33:36;20.00;99.90
18794;DHT22;29610;49.022;12.114;2023-09-19T08:36:27;19.90;99.90
18794;DHT22;29610;49.022;12.114;2023-09-19T08:39:18;19.70;99.90
18794;DHT22;29610;49.022;12.114;2023-09-19T08:42:06;19.70;99.90
18794;DHT22;29610;49.022;12.114;2023-09-19T08:44:55;19.80;99.90
18794;DHT22;29610;49.022;12.114;2023-09-19T08:47:56;20.10;99.90
18794;DHT22;29610;49.022;12.114;2023-09-19T08:50:52;20.30;99.90
18794;DHT22;29610;49.022;12.114;2023-09-19T08:53:51;20.30;99.90
18794;DHT22;29610;49.022;12.114;2023-09-19T08:56:50;20.40;99.90
18794;DHT22;29610;49.022;12.114;2023-09-19T08:59:41;20.70;99.90
18794;DHT22;29610;49.022;12.114;2023-09-19T09:02:33;20.80;99.90
18794;DHT22;29610;49.022;12.114;2023-09-19T09:05:23;20.80;99.90
18794;DHT22;29610;49.022;12.114;2023-09-19T09:08:13;20.50;99.90
18794;DHT22;29610;49.022;12.114;2023-09-19T09:11:05;20.40;99.90
18794;DHT22;29610;49.022;12.114;2023-09-19T09:13:55;20.30;99.90
18794;DHT22;29610;49.022;12.114;2023-09-19T09:16:44;20.10;99.90
18794;DHT22;29610;49.022;12.114;2023-09-19T09:19:36;20.00;99.90
18794;DHT22;29610;49.022;12.114;2023-09-19T09:22:25;20.10;99.90
18794;DHT22;29610;49.022;12.114;2023-09-19T09:25:14;20.10;99.90
18794;DHT22;29610;49.022;12.114;2023-09-19T09:28:08;20.00;99.90
18794;DHT22;29610;49.022;12.114;2023-09-19T09:30:58;20.10;99.80
18794;DHT22;29610;49.022;12.114;2023-09-19T09:33:53;20.40;98.30
18794;DHT22;29610;49.022;12.114;2023-09-19T09:36:42;20.70;96.90
18794;DHT22;29610;49.022;12.114;2023-09-19T09:39:39;20.90;95.60
18794;DHT22;29610;49.022;12.114;2023-09-19T09:42:30;20.90;94.80
18794;DHT22;29610;49.022;12.114;2023-09-19T09:45:24;20.40;95.20
18794;DHT22;29610;49.022;12.114;2023-09-19T09:48:25;20.00;96.20
18794;DHT22;29610;49.022;12.114;2023-09-19T09:51:29;19.80;97.80
18794;DHT22;29610;49.022;12.114;2023-09-19T09:54:18;19.70;97.50
18794;DHT22;29610;49.022;12.114;2023-09-19T09:57:09;19.60;97.60
18794;DHT22;29610;49.022;12.114;2023-09-19T10:00:07;19.50;97.30
18794;DHT22;29610;49.022;12.114;2023-09-19T10:03:19;19.40;97.40
18794;DHT22;29610;49.022;12.114;2023-09-19T10:06:11;19.70;97.70
18794;DHT22;29610;49.022;12.114;2023-09-19T10:09:16;20.00;97.00
18794;DHT22;29610;49.022;12.114;2023-09-19T10:12:09;19.90;95.60
18794;DHT22;29610;49.022;12.114;2023-09-19T10:15:02;20.00;95.20
18794;DHT22;29610;49.022;12.114;2023-09-19T10:17:54;20.10;95.20
18794;DHT22;29610;49.022;12.114;2023-09-19T10:20:45;20.30;94.60
18794;DHT22;29610;49.022;12.114;2023-09-19T10:23:36;20.80;94.70
18794;DHT22;29610;49.022;12.114;2023-09-19T10:26:27;21.00;94.10
18794;DHT22;29610;49.022;12.114;2023-09-19T10:29:18;21.20;94.20
18794;DHT22;29610;49.022;12.114;2023-09-19T10:32:09;21.60;94.00
18794;DHT22;29610;49.022;12.114;2023-09-19T10:35:07;22.00;93.60
18794;DHT22;29610;49.022;12.114;2023-09-19T10:38:00;22.40;92.20
18794;DHT22;29610;49.022;12.114;2023-09-19T10:40:51;22.60;92.00
18794;DHT22;29610;49.022;12.114;2023-09-19T10:43:46;22.70;92.00
18794;DHT22;29610;49.022;12.114;2023-09-19T10:46:37;22.30;91.40
18794;DHT22;29610;49.022;12.114;2023-09-19T10:49:26;22.50;92.10
18794;DHT22;29610;49.022;12.114;2023-09-19T10:52:18;22.70;91.80
18794;DHT22;29610;49.022;12.114;2023-09-19T10:55:17;23.00;91.50
18794;DHT22;29610;49.022;12.114;2023-09-19T10:58:08;23.00;90.90
18794;DHT22;29610;49.022;12.114;2023-09-19T11:01:02;23.00;90.40
18794;DHT22;29610;49.022;12.114;2023-09-19T11:04:23;23.20;90.70
18794;DHT22;29610;49.022;12.114;2023-09-19T11:07:13;23.20;90.40
18794;DHT22;29610;49.022;12.114;2023-09-19T11:10:03;23.20;91.00
18794;DHT22;29610;49.022;12.114;2023-09-19T11:12:56;23.30;90.10
18794;DHT22;29610;49.022;12.114;2023-09-19T11:16:12;23.20;90.70
18794;DHT22;29610;49.022;12.114;2023-09-19T11:19:11;23.10;90.00
18794;DHT22;29610;49.022;12.114;2023-09-19T11:21:59;23.40;90.70
18794;DHT22;29610;49.022;12.114;2023-09-19T11:24:47;23.80;90.90
18794;DHT22;29610;49.022;12.114;2023-09-19T11:31:43;24.10;87.70
18794;DHT22;29610;49.022;12.114;2023-09-19T11:34:48;24.10;86.50
18794;DHT22;29610;49.022;12.114;2023-09-19T11:37:59;24.50;87.70
18794;DHT22;29610;49.022;12.114;2023-09-19T11:44:33;25.40;83.10
18794;DHT22;29610;49.022;12.114;2023-09-19T11:47:32;24.70;84.30
18794;DHT22;29610;49.022;12.114;2023-09-19T11:50:24;24.50;84.70
18794;DHT22;29610;49.022;12.114;2023-09-19T11:53:13;24.90;85.10
18794;DHT22;29610;49.022;12.114;2023-09-19T11:56:06;25.20;87.40
18794;DHT22;29610;49.022;12.114;2023-09-19T11:58:57;24.90;82.10
18794;DHT22;29610;49.022;12.114;2023-09-19T12:01:51;24.40;82.30
18794;DHT22;29610;49.022;12.114;2023-09-19T12:04:46;24.40;83.60
18794;DHT22;29610;49.022;12.114;2023-09-19T12:07:42;24.30;83.40
18794;DHT22;29610;49.022;12.114;2023-09-19T12:10:47;24.40;84.00
18794;DHT22;29610;49.022;12.114;2023-09-19T12:13:36;24.30;82.30
18794;DHT22;29610;49.022;12.114;2023-09-19T12:16:33;24.10;82.50
18794;DHT22;29610;49.022;12.114;2023-09-19T12:19:34;24.20;82.90
18794;DHT22;29610;49.022;12.114;2023-09-19T12:22:24;24.60;82.20
18794;DHT22;29610;49.022;12.114;2023-09-19T12:25:13;24.80;81.40
18794;DHT22;29610;49.022;12.114;2023-09-19T12:28:04;24.60;80.20
18794;DHT22;29610;49.022;12.114;2023-09-19T12:30:53;24.90;81.70
18794;DHT22;29610;49.022;12.114;2023-09-19T12:33:42;25.60;79.20
18794;DHT22;29610;49.022;12.114;2023-09-19T12:36:32;25.30;77.90
18794;DHT22;29610;49.022;12.114;2023-09-19T12:39:27;25.30;77.80
18794;DHT22;29610;49.022;12.114;2023-09-19T12:42:18;26.30;75.00
18794;DHT22;29610;49.022;12.114;2023-09-19T12:45:11;24.80;74.00
18794;DHT22;29610;49.022;12.114;2023-09-19T12:48:18;24.80;75.20
18794;DHT22;29610;49.022;12.114;2023-09-19T12:51:10;25.00;74.00
18794;DHT22;29610;49.022;12.114;2023-09-19T12:54:00;25.20;73.70
18794;DHT22;29610;49.022;12.114;2023-09-19T12:56:51;25.80;73.10
18794;DHT22;29610;49.022;12.114;2023-09-19T12:59:41;24.80;72.20
18794;DHT22;29610;49.022;12.114;2023-09-19T13:02:30;24.80;73.20
18794;DHT22;29610;49.022;12.114;2023-09-19T13:05:19;24.90;72.80
18794;DHT22;29610;49.022;12.114;2023-09-19T13:08:18;24.80;72.00
18794;DHT22;29610;49.022;12.114;2023-09-19T13:11:10;24.70;72.00
18794;DHT22;29610;49.022;12.114;2023-09-19T13:14:18;25.00;71.90
18794;DHT22;29610;49.022;12.114;2023-09-19T13:17:09;24.40;72.40
18794;DHT22;29610;49.022;12.114;2023-09-19T13:20:05;24.00;73.00
18794;DHT22;29610;49.022;12.114;2023-09-19T13:22:56;24.20;73.90
18794;DHT22;29610;49.022;12.114;2023-09-19T13:25:48;24.20;75.30
18794;DHT22;29610;49.022;12.114;2023-09-19T13:28:40;24.20;75.10
18794;DHT22;29610;49.022;12.114;2023-09-19T13:31:30;24.30;74.20
18794;DHT22;29610;49.022;12.114;2023-09-19T13:34:20;23.80;75.40
18794;DHT22;29610;49.022;12.114;2023-09-19T13:37:08;23.70;75.70
18794;DHT22;29610;49.022;12.114;2023-09-19T13:39:57;23.60;75.00
18794;DHT22;29610;49.022;12.114;2023-09-19T13:42:51;23.60;76.40
18794;DHT22;29610;49.022;12.114;2023-09-19T13:45:48;24.20;76.40
18794;DHT22;29610;49.022;12.114;2023-09-19T13:48:38;23.90;74.40
18794;DHT22;29610;49.022;12.114;2023-09-19T13:51:28;24.00;76.40
18794;DHT22;29610;49.022;12.114;2023-09-19T13:54:20;23.70;76.00
18794;DHT22;29610;49.022;12.114;2023-09-19T13:57:09;23.60;76.50
18794;DHT22;29610;49.022;12.114;2023-09-19T14:00:00;23.40;75.80
18794;DHT22;29610;49.022;12.114;2023-09-19T14:02:58;23.40;77.20
18794;DHT22;29610;49.022;12.114;2023-09-19T14:05:49;23.00;76.70
18794;DHT22;29610;49.022;12.114;2023-09-19T14:08:39;22.90;76.60
18794;DHT22;29610;49.022;12.114;2023-09-19T14:11:28;22.70;76.90
18794;DHT22;29610;49.022;12.114;2023-09-19T14:14:17;22.30;77.30
18794;DHT22;29610;49.022;12.114;2023-09-19T14:17:05;22.40;77.40
18794;DHT22;29610;49.022;12.114;2023-09-19T14:19:56;22.10;76.70
18794;DHT22;29610;49.022;12.114;2023-09-19T14:22:47;22.20;77.10
18794;DHT22;29610;49.022;12.114;2023-09-19T14:25:35;22.20;77.70
18794;DHT22;29610;49.022;12.114;2023-09-19T14:28:25;22.10;76.60
18794;DHT22;29610;49.022;12.114;2023-09-19T14:31:14;22.00;76.90
18794;DHT22;29610;49.022;12.114;2023-09-19T14:34:03;22.10;77.20
18794;DHT22;29610;49.022;12.114;2023-09-19T14:36:52;21.70;76.80
18794;DHT22;29610;49.022;12.114;2023-09-19T14:39:43;21.70;77.70
18794;DHT22;29610;49.022;12.114;2023-09-19T14:42:32;21.70;77.70
18794;DHT22;29610;49.022;12.114;2023-09-19T14:45:23;21.60;77.30
18794;DHT22;29610;49.022;12.114;2023-09-19T14:48:12;21.50;78.50
18794;DHT22;29610;49.022;12.114;2023-09-19T14:51:05;21.50;79.70
18794;DHT22;29610;49.022;12.114;2023-09-19T14:53:56;21.40;78.70
18794;DHT22;29610;49.022;12.114;2023-09-19T14:56:46;21.40;79.90
18794;DHT22;29610;49.022;12.114;2023-09-19T14:59:40;21.30;79.60
18794;DHT22;29610;49.022;12.114;2023-09-19T15:02:29;21.20;81.00
18794;DHT22;29610;49.022;12.114;2023-09-19T15:05:18;21.10;80.40
18794;DHT22;29610;49.022;12.114;2023-09-19T15:08:07;21.00;82.00
18794;DHT22;29610;49.022;12.114;2023-09-19T15:10:56;20.90;81.50
18794;DHT22;29610;49.022;12.114;2023-09-19T15:13:48;20.90;82.50
18794;DHT22;29610;49.022;12.114;2023-09-19T15:16:40;20.90;83.10
18794;DHT22;29610;49.022;12.114;2023-09-19T15:19:31;20.80;82.30
18794;DHT22;29610;49.022;12.114;2023-09-19T15:22:19;20.70;83.00
18794;DHT22;29610;49.022;12.114;2023-09-19T15:25:09;20.50;84.20
18794;DHT22;29610;49.022;12.114;2023-09-19T15:27:58;20.50;82.50
18794;DHT22;29610;49.022;12.114;2023-09-19T15:30:59;20.50;82.80
18794;DHT22;29610;49.022;12.114;2023-09-19T15:33:48;20.40;83.00
18794;DHT22;29610;49.022;12.114;2023-09-19T15:36:37;20.40;83.50
18794;DHT22;29610;49.022;12.114;2023-09-19T15:39:30;20.30;84.70
18794;DHT22;29610;49.022;12.114;2023-09-19T15:42:20;20.30;85.00
18794;DHT22;29610;49.022;12.114;2023-09-19T15:45:09;20.30;83.70
18794;DHT22;29610;49.022;12.114;2023-09-19T15:47:59;20.20;84.80
18794;DHT22;29610;49.022;12.114;2023-09-19T15:50:48;20.10;84.60
18794;DHT22;29610;49.022;12.114;2023-09-19T15:53:42;20.10;85.10
18794;DHT22;29610;49.022;12.114;2023-09-19T15:56:33;20.00;85.10
18794;DHT22;29610;49.022;12.114;2023-09-19T15:59:22;19.90;85.00
18794;DHT22;29610;49.022;12.114;2023-09-19T16:02:11;19.90;86.20
18794;DHT22;29610;49.022;12.114;2023-09-19T16:05:01;19.70;87.50
18794;DHT22;29610;49.022;12.114;2023-09-19T16:07:53;19.70;87.50
18794;DHT22;29610;49.022;12.114;2023-09-19T16:10:42;19.70;86.90
18794;DHT22;29610;49.022;12.114;2023-09-19T16:13:31;19.70;86.50
18794;DHT22;29610;49.022;12.114;2023-09-19T16:16:21;19.60;87.00
18794;DHT22;29610;49.022;12.114;2023-09-19T16:19:11;19.60;86.50
18794;DHT22;29610;49.022;12.114;2023-09-19T16:22:01;19.50;87.10
18794;DHT22;29610;49.022;12.114;2023-09-19T16:24:50;19.40;88.10
18794;DHT22;29610;49.022;12.114;2023-09-19T16:27:38;19.30;88.30
18794;DHT22;29610;49.022;12.114;2023-09-19T16:30:27;19.30;87.40
18794;DHT22;29610;49.022;12.114;2023-09-19T16:33:16;19.20;88.40
18794;DHT22;29610;49.022;12.114;2023-09-19T16:36:07;19.10;89.40
18794;DHT22;29610;49.022;12.114;2023-09-19T16:38:58;18.90;90.10
18794;DHT22;29610;49.022;12.114;2023-09-19T16:41:47;18.80;90.00
18794;DHT22;29610;49.022;12.114;2023-09-19T16:44:36;18.70;90.20
18794;DHT22;29610;49.022;12.114;2023-09-19T16:47:25;18.60;91.40
18794;DHT22;29610;49.022;12.114;2023-09-19T16:50:13;18.40;90.90
18794;DHT22;29610;49.022;12.114;2023-09-19T16:53:02;18.30;91.10
18794;DHT22;29610;49.022;12.114;2023-09-19T16:55:53;18.20;91.60
18794;DHT22;29610;49.022;12.114;2023-09-19T16:58:42;18.00;91.80
18794;DHT22;29610;49.022;12.114;2023-09-19T17:01:33;17.90;91.90
18794;DHT22;29610;49.022;12.114;2023-09-19T17:04:23;17.80;92.30
18794;DHT22;29610;49.022;12.114;2023-09-19T17:07:11;17.60;92.50
18794;DHT22;29610;49.022;12.114;2023-09-19T17:10:00;17.40;92.60
18794;DHT22;29610;49.022;12.114;2023-09-19T17:12:50;17.30;93.00
18794;DHT22;29610;49.022;12.114;2023-09-19T17:15:39;17.10;93.40
18794;DHT22;29610;49.022;12.114;2023-09-19T17:18:34;16.90;93.90
18794;DHT22;29610;49.022;12.114;2023-09-19T17:21:30;16.80;94.30
18794;DHT22;29610;49.022;12.114;2023-09-19T17:24:19;16.70;94.60
18794;DHT22;29610;49.022;12.114;2023-09-19T17:27:08;16.70;94.80
18794;DHT22;29610;49.022;12.114;2023-09-19T17:29:59;16.50;95.20
18794;DHT22;29610;49.022;12.114;2023-09-19T17:32:48;17.10;95.70
18794;DHT22;29610;49.022;12.114;2023-09-19T17:35:36;16.30;95.50
18794;DHT22;29610;49.022;12.114;2023-09-19T17:38:25;16.20;95.80
18794;DHT22;29610;49.022;12.114;2023-09-19T17:41:15;16.20;96.20
18794;DHT22;29610;49.022;12.114;2023-09-19T17:44:04;16.00;96.20
18794;DHT22;29610;49.022;12.114;2023-09-19T17:46:55;15.90;96.50
18794;DHT22;29610;49.022;12.114;2023-09-19T17:49:44;15.80;96.80
18794;DHT22;29610;49.022;12.114;2023-09-19T17:52:36;15.60;97.10
18794;DHT22;29610;49.022;12.114;2023-09-19T17:55:25;15.60;97.70